sensor_id;sensor_type;location;lat;lon;timestamp;pressure;altitude;pressure_sealevel;temperature;humidity
56671;BME280;42545;50.054;8.306;2023-10-13T00:01:08;99912.31;;;14.30;100.00
56671;BME280;42545;50.054;8.306;2023-10-13T00:03:38;99914.97;;;14.27;100.00
56671;BME280;42545;50.054;8.306;2023-10-13T00:06:07;99923.81;;;14.27;100.00
56671;BME280;42545;50.054;8.306;2023-10-13T00:08:34;99912.31;;;14.25;100.00
56671;BME280;42545;50.054;8.306;2023-10-13T00:11:04;99911.44;;;14.23;100.00
56671;BME280;42545;50.054;8.306;2023-10-13T00:13:31;99912.31;;;14.20;100.00
56671;BME280;42545;50.054;8.306;2023-10-13T00:16:07;99910.53;;;14.19;100.00
56671;BME280;42545;50.054;8.306;2023-10-13T00:18:36;99905.25;;;14.18;100.00
56671;BME280;42545;50.054;8.306;2023-10-13T00:21:09;99906.13;;;14.17;100.00
56671;BME280;42545;50.054;8.306;2023-10-13T00:23:38;99901.69;;;14.16;100.00
56671;BME280;42545;50.054;8.306;2023-10-13T00:26:08;99892.88;;;14.17;100.00
56671;BME280;42545;50.054;8.306;2023-10-13T00:28:35;99896.41;;;14.17;100.00
56671;BME280;42545;50.054;8.306;2023-10-13T00:31:10;99889.31;;;14.16;100.00
56671;BME280;42545;50.054;8.306;2023-10-13T00:33:39;99888.44;;;14.16;100.00
56671;BME280;42545;50.054;8.306;2023-10-13T00:36:09;99895.53;;;14.17;100.00
56671;BME280;42545;50.054;8.306;2023-10-13T00:38:44;99895.53;;;14.17;100.00
56671;BME280;42545;50.054;8.306;2023-10-13T00:41:14;99888.44;;;14.17;100.00
56671;BME280;42545;50.054;8.306;2023-10-13T00:43:46;99891.09;;;14.19;100.00
56671;BME280;42545;50.054;8.306;2023-10-13T00:46:31;99885.78;;;14.19;100.00
56671;BME280;42545;50.054;8.306;2023-10-13T00:48:58;99894.63;;;14.19;100.00
56671;BME280;42545;50.054;8.306;2023-10-13T00:51:26;99887.56;;;14.18;100.00
56671;BME280;42545;50.054;8.306;2023-10-13T00:54:02;99881.34;;;14.18;100.00
56671;BME280;42545;50.054;8.306;2023-10-13T00:56:33;99875.19;;;14.19;100.00
56671;BME280;42545;50.054;8.306;2023-10-13T00:59:06;99879.59;;;14.18;100.00
56671;BME280;42545;50.054;8.306;2023-10-13T01:01:35;99873.38;;;14.16;100.00
56671;BME280;42545;50.054;8.306;2023-10-13T01:04:02;99862.78;;;14.16;100.00
56671;BME280;42545;50.054;8.306;2023-10-13T01:06:30;99870.78;;;14.15;100.00
56671;BME280;42545;50.054;8.306;2023-10-13T01:08:58;99861.03;;;14.15;100.00
56671;BME280;42545;50.054;8.306;2023-10-13T01:11:37;99871.66;;;14.15;100.00
56671;BME280;42545;50.054;8.306;2023-10-13T01:14:03;99871.66;;;14.15;100.00
56671;BME280;42545;50.054;8.306;2023-10-13T01:16:29;99876.03;;;14.16;100.00
56671;BME280;42545;50.054;8.306;2023-10-13T01:18:56;99876.03;;;14.16;100.00
56671;BME280;42545;50.054;8.306;2023-10-13T01:21:25;99874.28;;;14.15;100.00
56671;BME280;42545;50.054;8.306;2023-10-13T01:23:56;99873.41;;;14.13;100.00
56671;BME280;42545;50.054;8.306;2023-10-13T01:26:21;99876.94;;;14.15;100.00
56671;BME280;42545;50.054;8.306;2023-10-13T01:28:50;99871.63;;;14.14;100.00
56671;BME280;42545;50.054;8.306;2023-10-13T01:31:16;99877.81;;;14.14;100.00
56671;BME280;42545;50.054;8.306;2023-10-13T01:33:53;99874.28;;;14.12;100.00
56671;BME280;42545;50.054;8.306;2023-10-13T01:36:23;99868.09;;;14.10;100.00
56671;BME280;42545;50.054;8.306;2023-10-13T01:38:49;99866.31;;;14.11;100.00
56671;BME280;42545;50.054;8.306;2023-10-13T01:41:18;99866.31;;;14.12;100.00
56671;BME280;42545;50.054;8.306;2023-10-13T01:43:45;99870.78;;;14.15;100.00
56671;BME280;42545;50.054;8.306;2023-10-13T01:46:11;99876.03;;;14.16;100.00
56671;BME280;42545;50.054;8.306;2023-10-13T01:48:39;99861.03;;;14.17;100.00
56671;BME280;42545;50.054;8.306;2023-10-13T01:51:06;99857.47;;;14.19;100.00
56671;BME280;42545;50.054;8.306;2023-10-13T01:53:36;99844.22;;;14.19;100.00
56671;BME280;42545;50.054;8.306;2023-10-13T01:56:03;99839.81;;;14.18;100.00
56671;BME280;42545;50.054;8.306;2023-10-13T01:58:33;99833.59;;;14.19;100.00
56671;BME280;42545;50.054;8.306;2023-10-13T02:00:59;99824.75;;;14.19;100.00
56671;BME280;42545;50.054;8.306;2023-10-13T02:03:25;99822.09;;;14.17;100.00
56671;BME280;42545;50.054;8.306;2023-10-13T02:05:55;99821.22;;;14.17;100.00
56671;BME280;42545;50.054;8.306;2023-10-13T02:08:23;99823.88;;;14.15;100.00
56671;BME280;42545;50.054;8.306;2023-10-13T02:10:51;99816.78;;;14.16;100.00
56671;BME280;42545;50.054;8.306;2023-10-13T02:13:17;99814.13;;;14.14;100.00
56671;BME280;42545;50.054;8.306;2023-10-13T02:15:46;99823.00;;;14.15;100.00
56671;BME280;42545;50.054;8.306;2023-10-13T02:18:14;99813.25;;;14.14;100.00
56671;BME280;42545;50.054;8.306;2023-10-13T02:20:46;99806.22;;;14.13;100.00
56671;BME280;42545;50.054;8.306;2023-10-13T02:23:19;99820.34;;;14.13;100.00
56671;BME280;42545;50.054;8.306;2023-10-13T02:25:46;99818.56;;;14.14;100.00
56671;BME280;42545;50.054;8.306;2023-10-13T02:28:12;99803.56;;;14.11;100.00
56671;BME280;42545;50.054;8.306;2023-10-13T02:30:40;99801.78;;;14.10;100.00
56671;BME280;42545;50.054;8.306;2023-10-13T02:33:13;99795.59;;;14.10;100.00
56671;BME280;42545;50.054;8.306;2023-10-13T02:35:40;99779.69;;;14.08;100.00
56671;BME280;42545;50.054;8.306;2023-10-13T02:38:15;99773.50;;;14.06;100.00
56671;BME280;42545;50.054;8.306;2023-10-13T02:40:51;99770.84;;;14.04;100.00
56671;BME280;42545;50.054;8.306;2023-10-13T02:43:19;99769.09;;;14.02;100.00
56671;BME280;42545;50.054;8.306;2023-10-13T02:45:52;99757.59;;;13.95;100.00
56671;BME280;42545;50.054;8.306;2023-10-13T02:48:25;99764.66;;;14.01;100.00
56671;BME280;42545;50.054;8.306;2023-10-13T02:50:57;99765.53;;;14.01;100.00
56671;BME280;42545;50.054;8.306;2023-10-13T02:53:27;99756.69;;;14.01;100.00
56671;BME280;42545;50.054;8.306;2023-10-13T02:55:55;99768.19;;;14.03;100.00
56671;BME280;42545;50.054;8.306;2023-10-13T02:58:22;99773.50;;;14.01;100.00
56671;BME280;42545;50.054;8.306;2023-10-13T03:00:48;99776.16;;;14.04;100.00
56671;BME280;42545;50.054;8.306;2023-10-13T03:03:14;99769.97;;;14.02;100.00
56671;BME280;42545;50.054;8.306;2023-10-13T03:05:45;99758.44;;;14.03;100.00
56671;BME280;42545;50.054;8.306;2023-10-13T03:08:11;99759.34;;;14.06;100.00
56671;BME280;42545;50.054;8.306;2023-10-13T03:10:43;99763.75;;;14.07;100.00
56671;BME280;42545;50.054;8.306;2023-10-13T03:13:13;99759.31;;;14.07;100.00
56671;BME280;42545;50.054;8.306;2023-10-13T03:15:39;99757.56;;;14.04;100.00
56671;BME280;42545;50.054;8.306;2023-10-13T03:18:05;99763.75;;;14.05;100.00
56671;BME280;42545;50.054;8.306;2023-10-13T03:20:31;99762.00;;;14.02;100.00
56671;BME280;42545;50.054;8.306;2023-10-13T03:23:02;99762.00;;;13.99;100.00
56671;BME280;42545;50.054;8.306;2023-10-13T03:25:34;99758.47;;;13.99;100.00
56671;BME280;42545;50.054;8.306;2023-10-13T03:28:08;99756.69;;;13.98;100.00
56671;BME280;42545;50.054;8.306;2023-10-13T03:30:37;99739.03;;;13.95;100.00
56671;BME280;42545;50.054;8.306;2023-10-13T03:33:07;99734.59;;;13.94;100.00
56671;BME280;42545;50.054;8.306;2023-10-13T03:35:36;99731.94;;;13.94;100.00
56671;BME280;42545;50.054;8.306;2023-10-13T03:38:08;99729.31;;;13.91;100.00
56671;BME280;42545;50.054;8.306;2023-10-13T03:40:44;99724.91;;;13.92;100.00
56671;BME280;42545;50.054;8.306;2023-10-13T03:43:32;99726.63;;;13.94;100.00
56671;BME280;42545;50.054;8.306;2023-10-13T03:46:10;99718.72;;;13.93;100.00
56671;BME280;42545;50.054;8.306;2023-10-13T03:48:38;99730.19;;;13.95;100.00
56671;BME280;42545;50.054;8.306;2023-10-13T03:51:17;99733.72;;;13.95;100.00
56671;BME280;42545;50.054;8.306;2023-10-13T03:53:46;99731.06;;;13.95;100.00
56671;BME280;42545;50.054;8.306;2023-10-13T03:56:20;99739.03;;;13.97;100.00
56671;BME280;42545;50.054;8.306;2023-10-13T03:58:55;99736.38;;;13.98;100.00
56671;BME280;42545;50.054;8.306;2023-10-13T04:01:24;99735.47;;;13.99;100.00
56671;BME280;42545;50.054;8.306;2023-10-13T04:03:58;99721.34;;;14.00;100.00
56671;BME280;42545;50.054;8.306;2023-10-13T04:06:28;99733.69;;;14.01;100.00
56671;BME280;42545;50.054;8.306;2023-10-13T04:09:19;99731.94;;;14.02;100.00
56671;BME280;42545;50.054;8.306;2023-10-13T04:12:25;99721.34;;;13.99;100.00
56671;BME280;42545;50.054;8.306;2023-10-13T04:15:09;99715.16;;;13.98;100.00
56671;BME280;42545;50.054;8.306;2023-10-13T04:17:46;99714.25;;;13.98;100.00
56671;BME280;42545;50.054;8.306;2023-10-13T04:20:16;99708.97;;;13.96;100.00
56671;BME280;42545;50.054;8.306;2023-10-13T04:23:03;99704.56;;;13.95;100.00
56671;BME280;42545;50.054;8.306;2023-10-13T04:25:44;99705.41;;;13.97;100.00
56671;BME280;42545;50.054;8.306;2023-10-13T04:28:28;99703.66;;;13.98;100.00
56671;BME280;42545;50.054;8.306;2023-10-13T04:31:03;99697.47;;;14.00;100.00
56671;BME280;42545;50.054;8.306;2023-10-13T04:33:38;99703.66;;;14.02;100.00
56671;BME280;42545;50.054;8.306;2023-10-13T04:36:17;99705.38;;;14.03;100.00
56671;BME280;42545;50.054;8.306;2023-10-13T04:38:49;99691.25;;;14.04;100.00
56671;BME280;42545;50.054;8.306;2023-10-13T04:41:25;99677.13;;;14.06;100.00
56671;BME280;42545;50.054;8.306;2023-10-13T04:43:57;99678.88;;;14.07;100.00
56671;BME280;42545;50.054;8.306;2023-10-13T04:46:30;99679.78;;;14.06;100.00
56671;BME280;42545;50.054;8.306;2023-10-13T04:49:19;99679.72;;;14.09;100.00
56671;BME280;42545;50.054;8.306;2023-10-13T04:51:54;99671.78;;;14.10;100.00
56671;BME280;42545;50.054;8.306;2023-10-13T04:54:39;99681.50;;;14.11;100.00
56671;BME280;42545;50.054;8.306;2023-10-13T04:57:12;99674.44;;;14.10;100.00
56671;BME280;42545;50.054;8.306;2023-10-13T04:59:59;99671.78;;;14.12;100.00
56671;BME280;42545;50.054;8.306;2023-10-13T05:02:46;99667.34;;;14.11;100.00
56671;BME280;42545;50.054;8.306;2023-10-13T05:05:48;99669.13;;;14.12;100.00
56671;BME280;42545;50.054;8.306;2023-10-13T05:08:32;99670.91;;;14.10;100.00
56671;BME280;42545;50.054;8.306;2023-10-13T05:11:16;99679.72;;;14.10;100.00
56671;BME280;42545;50.054;8.306;2023-10-13T05:14:01;99665.59;;;14.08;100.00
56671;BME280;42545;50.054;8.306;2023-10-13T05:16:45;99674.44;;;14.09;100.00
56671;BME280;42545;50.054;8.306;2023-10-13T05:19:29;99657.63;;;14.10;100.00
56671;BME280;42545;50.054;8.306;2023-10-13T05:22:13;99662.94;;;14.10;100.00
56671;BME280;42545;50.054;8.306;2023-10-13T05:24:58;99662.94;;;14.11;100.00
56671;BME280;42545;50.054;8.306;2023-10-13T05:27:42;99662.03;;;14.15;100.00
56671;BME280;42545;50.054;8.306;2023-10-13T05:30:27;99661.16;;;14.15;100.00
56671;BME280;42545;50.054;8.306;2023-10-13T05:33:13;99661.16;;;14.15;100.00
56671;BME280;42545;50.054;8.306;2023-10-13T05:35:57;99663.78;;;14.19;100.00
56671;BME280;42545;50.054;8.306;2023-10-13T05:38:41;99663.78;;;14.19;100.00
56671;BME280;42545;50.054;8.306;2023-10-13T05:41:25;99653.16;;;14.21;100.00
56671;BME280;42545;50.054;8.306;2023-10-13T05:44:09;99655.81;;;14.21;100.00
56671;BME280;42545;50.054;8.306;2023-10-13T05:46:54;99655.81;;;14.22;100.00
56671;BME280;42545;50.054;8.306;2023-10-13T05:50:10;99657.56;;;14.23;100.00
56671;BME280;42545;50.054;8.306;2023-10-13T05:52:54;99654.91;;;14.25;100.00
56671;BME280;42545;50.054;8.306;2023-10-13T05:55:38;99654.91;;;14.25;100.00
56671;BME280;42545;50.054;8.306;2023-10-13T05:58:22;99650.50;;;14.21;100.00
56671;BME280;42545;50.054;8.306;2023-10-13T06:01:12;99654.91;;;14.25;100.00
56671;BME280;42545;50.054;8.306;2023-10-13T06:03:58;99653.13;;;14.27;100.00
56671;BME280;42545;50.054;8.306;2023-10-13T06:06:41;99665.50;;;14.28;100.00
56671;BME280;42545;50.054;8.306;2023-10-13T06:09:26;99661.06;;;14.29;100.00
56671;BME280;42545;50.054;8.306;2023-10-13T06:12:09;99650.50;;;14.24;100.00
56671;BME280;42545;50.054;8.306;2023-10-13T06:14:53;99654.03;;;14.28;100.00
56671;BME280;42545;50.054;8.306;2023-10-13T06:17:37;99660.19;;;14.31;100.00
56671;BME280;42545;50.054;8.306;2023-10-13T06:20:23;99653.09;;;14.32;100.00
56671;BME280;42545;50.054;8.306;2023-10-13T06:23:08;99658.41;;;14.32;100.00
56671;BME280;42545;50.054;8.306;2023-10-13T06:25:53;99652.19;;;14.33;100.00
56671;BME280;42545;50.054;8.306;2023-10-13T06:28:37;99656.63;;;14.38;100.00
56671;BME280;42545;50.054;8.306;2023-10-13T06:31:08;99648.63;;;14.41;100.00
56671;BME280;42545;50.054;8.306;2023-10-13T06:33:38;99651.25;;;14.46;100.00
56671;BME280;42545;50.054;8.306;2023-10-13T06:36:12;99659.19;;;14.49;100.00
56671;BME280;42545;50.054;8.306;2023-10-13T06:38:38;99667.13;;;14.52;100.00
56671;BME280;42545;50.054;8.306;2023-10-13T06:41:07;99670.66;;;14.56;100.00
56671;BME280;42545;50.054;8.306;2023-10-13T06:43:35;99673.31;;;14.62;100.00
56671;BME280;42545;50.054;8.306;2023-10-13T06:46:05;99680.38;;;14.66;100.00
56671;BME280;42545;50.054;8.306;2023-10-13T06:48:32;99668.00;;;14.62;100.00
56671;BME280;42545;50.054;8.306;2023-10-13T06:51:00;99678.53;;;14.74;100.00
56671;BME280;42545;50.054;8.306;2023-10-13T06:53:38;99669.69;;;14.78;100.00
56671;BME280;42545;50.054;8.306;2023-10-13T06:56:11;99670.50;;;14.82;100.00
56671;BME280;42545;50.054;8.306;2023-10-13T06:58:43;99670.50;;;14.84;100.00
56671;BME280;42545;50.054;8.306;2023-10-13T07:01:12;99672.22;;;14.89;100.00
56671;BME280;42545;50.054;8.306;2023-10-13T07:03:42;99669.56;;;14.91;100.00
56671;BME280;42545;50.054;8.306;2023-10-13T07:06:08;99669.56;;;14.92;100.00
56671;BME280;42545;50.054;8.306;2023-10-13T07:08:44;99673.09;;;14.94;100.00
56671;BME280;42545;50.054;8.306;2023-10-13T07:11:17;99676.59;;;14.98;100.00
56671;BME280;42545;50.054;8.306;2023-10-13T07:13:48;99658.84;;;15.02;100.00
56671;BME280;42545;50.054;8.306;2023-10-13T07:16:17;99669.47;;;15.05;100.00
56671;BME280;42545;50.054;8.306;2023-10-13T07:18:44;99676.53;;;15.07;100.00
56671;BME280;42545;50.054;8.306;2023-10-13T07:21:18;99673.84;;;15.12;100.00
56671;BME280;42545;50.054;8.306;2023-10-13T07:23:58;99686.22;;;15.13;100.00
56671;BME280;42545;50.054;8.306;2023-10-13T07:26:36;99683.56;;;15.13;100.00
56671;BME280;42545;50.054;8.306;2023-10-13T07:29:08;99684.44;;;15.15;100.00
56671;BME280;42545;50.054;8.306;2023-10-13T07:31:35;99684.41;;;15.16;100.00
56671;BME280;42545;50.054;8.306;2023-10-13T07:34:04;99684.41;;;15.19;100.00
56671;BME280;42545;50.054;8.306;2023-10-13T07:36:38;99680.81;;;15.22;100.00
56671;BME280;42545;50.054;8.306;2023-10-13T07:39:07;99679.88;;;15.29;100.00
56671;BME280;42545;50.054;8.306;2023-10-13T07:41:46;99686.03;;;15.37;100.00
56671;BME280;42545;50.054;8.306;2023-10-13T07:44:17;99670.00;;;15.44;100.00
56671;BME280;42545;50.054;8.306;2023-10-13T07:46:45;99666.41;;;15.49;100.00
56671;BME280;42545;50.054;8.306;2023-10-13T07:49:13;99666.34;;;15.55;100.00
56671;BME280;42545;50.054;8.306;2023-10-13T07:51:40;99661.84;;;15.62;100.00
56671;BME280;42545;50.054;8.306;2023-10-13T07:54:12;99662.66;;;15.70;100.00
56671;BME280;42545;50.054;8.306;2023-10-13T07:56:46;99662.63;;;15.75;100.00
56671;BME280;42545;50.054;8.306;2023-10-13T07:59:13;99663.44;;;15.82;100.00
56671;BME280;42545;50.054;8.306;2023-10-13T08:01:41;99673.16;;;15.84;100.00
56671;BME280;42545;50.054;8.306;2023-10-13T08:04:08;99664.31;;;15.84;100.00
56671;BME280;42545;50.054;8.306;2023-10-13T08:06:39;99662.47;;;15.90;100.00
56671;BME280;42545;50.054;8.306;2023-10-13T08:09:08;99664.16;;;15.98;100.00
56671;BME280;42545;50.054;8.306;2023-10-13T08:11:36;99660.50;;;16.06;100.00
56671;BME280;42545;50.054;8.306;2023-10-13T08:14:04;99668.50;;;16.06;100.00
56671;BME280;42545;50.054;8.306;2023-10-13T08:16:47;99660.47;;;16.08;100.00
56671;BME280;42545;50.054;8.306;2023-10-13T08:19:20;99663.06;;;16.14;100.00
56671;BME280;42545;50.054;8.306;2023-10-13T08:21:53;99668.28;;;16.22;100.00
56671;BME280;42545;50.054;8.306;2023-10-13T08:24:23;99668.25;;;16.26;100.00
56671;BME280;42545;50.054;8.306;2023-10-13T08:26:55;99652.19;;;16.31;100.00
56671;BME280;42545;50.054;8.306;2023-10-13T08:29:40;99645.88;;;16.38;100.00
56671;BME280;42545;50.054;8.306;2023-10-13T08:32:24;99642.28;;;16.41;100.00
56671;BME280;42545;50.054;8.306;2023-10-13T08:35:02;99633.31;;;16.46;100.00
56671;BME280;42545;50.054;8.306;2023-10-13T08:38:00;99639.44;;;16.55;100.00
56671;BME280;42545;50.054;8.306;2023-10-13T08:40:30;99628.63;;;16.64;100.00
56671;BME280;42545;50.054;8.306;2023-10-13T08:43:17;99631.19;;;16.70;100.00
56671;BME280;42545;50.054;8.306;2023-10-13T08:45:44;99625.84;;;16.71;100.00
56671;BME280;42545;50.054;8.306;2023-10-13T08:48:20;99638.28;;;16.72;100.00
56671;BME280;42545;50.054;8.306;2023-10-13T08:50:52;99639.97;;;16.78;100.00
56671;BME280;42545;50.054;8.306;2023-10-13T08:53:22;99630.16;;;16.80;100.00
56671;BME280;42545;50.054;8.306;2023-10-13T08:55:58;99618.38;;;16.97;100.00
56671;BME280;42545;50.054;8.306;2023-10-13T08:58:32;99591.56;;;17.06;100.00
56671;BME280;42545;50.054;8.306;2023-10-13T09:01:16;99598.38;;;17.22;100.00
56671;BME280;42545;50.054;8.306;2023-10-13T09:04:00;99594.66;;;17.33;100.00
56671;BME280;42545;50.054;8.306;2023-10-13T09:06:41;99583.03;;;17.35;100.00
56671;BME280;42545;50.054;8.306;2023-10-13T09:09:12;99572.34;;;17.37;100.00
56671;BME280;42545;50.054;8.306;2023-10-13T09:11:52;99582.13;;;17.38;100.00
56671;BME280;42545;50.054;8.306;2023-10-13T09:14:36;99585.63;;;17.40;100.00
56671;BME280;42545;50.054;8.306;2023-10-13T09:17:08;99579.38;;;17.41;100.00
56671;BME280;42545;50.054;8.306;2023-10-13T09:19:48;99583.69;;;17.46;100.00
56671;BME280;42545;50.054;8.306;2023-10-13T09:22:21;99577.28;;;17.57;100.00
56671;BME280;42545;50.054;8.306;2023-10-13T09:24:51;99581.41;;;17.73;100.00
56671;BME280;42545;50.054;8.306;2023-10-13T09:27:18;99584.72;;;17.88;100.00
56671;BME280;42545;50.054;8.306;2023-10-13T09:29:54;99584.34;;;18.04;100.00
56671;BME280;42545;50.054;8.306;2023-10-13T09:32:21;99576.94;;;18.17;100.00
56671;BME280;42545;50.054;8.306;2023-10-13T09:34:46;99581.34;;;18.20;100.00
56671;BME280;42545;50.054;8.306;2023-10-13T09:37:16;99585.66;;;18.25;100.00
56671;BME280;42545;50.054;8.306;2023-10-13T09:39:46;99586.34;;;18.34;100.00
56671;BME280;42545;50.054;8.306;2023-10-13T09:42:16;99576.31;;;18.43;100.00
56671;BME280;42545;50.054;8.306;2023-10-13T09:44:45;99568.03;;;18.56;100.00
56671;BME280;42545;50.054;8.306;2023-10-13T09:47:22;99564.91;;;18.74;100.00
56671;BME280;42545;50.054;8.306;2023-10-13T09:49:58;99562.94;;;18.84;100.00
56671;BME280;42545;50.054;8.306;2023-10-13T09:52:30;99568.91;;;18.94;100.00
56671;BME280;42545;50.054;8.306;2023-10-13T09:55:03;99574.97;;;19.02;100.00
56671;BME280;42545;50.054;8.306;2023-10-13T09:57:37;99569.25;;;19.14;100.00
56671;BME280;42545;50.054;8.306;2023-10-13T10:00:10;99567.34;;;19.19;100.00
56671;BME280;42545;50.054;8.306;2023-10-13T10:02:55;99575.09;;;19.30;100.00
56671;BME280;42545;50.054;8.306;2023-10-13T10:05:24;99580.19;;;19.39;100.00
56671;BME280;42545;50.054;8.306;2023-10-13T10:07:55;99576.53;;;19.42;98.07
56671;BME280;42545;50.054;8.306;2023-10-13T10:10:22;99565.75;;;19.45;98.53
56671;BME280;42545;50.054;8.306;2023-10-13T10:12:54;99553.13;;;19.50;97.84
56671;BME280;42545;50.054;8.306;2023-10-13T10:15:27;99567.34;;;19.52;97.01
56671;BME280;42545;50.054;8.306;2023-10-13T10:17:56;99561.09;;;19.53;96.77
56671;BME280;42545;50.054;8.306;2023-10-13T10:20:29;99559.13;;;19.58;96.34
56671;BME280;42545;50.054;8.306;2023-10-13T10:23:05;99552.78;;;19.63;96.18
56671;BME280;42545;50.054;8.306;2023-10-13T10:25:37;99569.94;;;19.55;95.31
56671;BME280;42545;50.054;8.306;2023-10-13T10:28:09;99555.81;;;19.50;95.06
56671;BME280;42545;50.054;8.306;2023-10-13T10:30:42;99563.84;;;19.50;96.00
56671;BME280;42545;50.054;8.306;2023-10-13T10:33:10;99555.78;;;19.52;96.17
56671;BME280;42545;50.054;8.306;2023-10-13T10:35:39;99547.72;;;19.53;95.82
56671;BME280;42545;50.054;8.306;2023-10-13T10:38:09;99549.56;;;19.51;95.56
56671;BME280;42545;50.054;8.306;2023-10-13T10:40:54;99544.13;;;19.53;96.65
56671;BME280;42545;50.054;8.306;2023-10-13T10:43:25;99540.50;;;19.55;95.91
56671;BME280;42545;50.054;8.306;2023-10-13T10:45:56;99526.78;;;19.68;96.22
56671;BME280;42545;50.054;8.306;2023-10-13T10:48:26;99519.34;;;19.79;96.91
56671;BME280;42545;50.054;8.306;2023-10-13T10:50:59;99521.53;;;19.94;95.53
56671;BME280;42545;50.054;8.306;2023-10-13T10:53:33;99523.00;;;20.05;95.33
56671;BME280;42545;50.054;8.306;2023-10-13T10:56:09;99511.84;;;20.19;93.90
56671;BME280;42545;50.054;8.306;2023-10-13T10:58:46;99509.66;;;20.31;91.34
56671;BME280;42545;50.054;8.306;2023-10-13T11:01:14;99501.94;;;20.49;87.38
56671;BME280;42545;50.054;8.306;2023-10-13T11:03:53;99498.72;;;20.66;86.30
56671;BME280;42545;50.054;8.306;2023-10-13T11:06:22;99488.59;;;20.76;85.22
56671;BME280;42545;50.054;8.306;2023-10-13T11:08:49;99487.44;;;20.83;83.94
56671;BME280;42545;50.054;8.306;2023-10-13T11:11:28;99481.91;;;20.87;83.08
56671;BME280;42545;50.054;8.306;2023-10-13T11:13:56;99485.22;;;20.96;83.44
56671;BME280;42545;50.054;8.306;2023-10-13T11:16:36;99478.63;;;21.04;83.45
56671;BME280;42545;50.054;8.306;2023-10-13T11:19:03;99468.78;;;21.05;82.33
56671;BME280;42545;50.054;8.306;2023-10-13T11:21:31;99469.41;;;21.11;82.67
56671;BME280;42545;50.054;8.306;2023-10-13T11:23:58;99455.97;;;21.13;82.31
56671;BME280;42545;50.054;8.306;2023-10-13T11:26:34;99448.34;;;21.26;81.20
56671;BME280;42545;50.054;8.306;2023-10-13T11:29:05;99440.84;;;21.36;81.13
56671;BME280;42545;50.054;8.306;2023-10-13T11:31:37;99436.00;;;21.45;80.38
56671;BME280;42545;50.054;8.306;2023-10-13T11:34:04;99445.63;;;21.51;79.43
56671;BME280;42545;50.054;8.306;2023-10-13T11:36:31;99441.03;;;21.55;78.74
56671;BME280;42545;50.054;8.306;2023-10-13T11:39:00;99426.59;;;21.57;78.91
56671;BME280;42545;50.054;8.306;2023-10-13T11:41:27;99433.69;;;21.60;79.37
56671;BME280;42545;50.054;8.306;2023-10-13T11:43:58;99429.19;;;21.60;79.65
56671;BME280;42545;50.054;8.306;2023-10-13T11:46:39;99426.31;;;21.65;79.00
56671;BME280;42545;50.054;8.306;2023-10-13T11:49:21;99423.13;;;21.77;78.13
56671;BME280;42545;50.054;8.306;2023-10-13T11:52:00;99421.47;;;21.97;78.38
56671;BME280;42545;50.054;8.306;2023-10-13T11:54:45;99422.97;;;22.04;76.45
56671;BME280;42545;50.054;8.306;2023-10-13T11:57:12;99417.53;;;22.05;74.92
56671;BME280;42545;50.054;8.306;2023-10-13T11:59:41;99412.34;;;22.01;73.59
56671;BME280;42545;50.054;8.306;2023-10-13T12:02:20;99408.03;;;21.97;72.67
56671;BME280;42545;50.054;8.306;2023-10-13T12:05:05;99406.28;;;21.96;73.53
56671;BME280;42545;50.054;8.306;2023-10-13T12:07:38;99399.22;;;21.93;73.50
56671;BME280;42545;50.054;8.306;2023-10-13T12:10:13;99402.19;;;21.87;71.96
56671;BME280;42545;50.054;8.306;2023-10-13T12:12:58;99403.91;;;21.88;72.90
56671;BME280;42545;50.054;8.306;2023-10-13T12:15:31;99397.78;;;21.84;73.60
56671;BME280;42545;50.054;8.306;2023-10-13T12:18:04;99402.41;;;21.81;73.43
56671;BME280;42545;50.054;8.306;2023-10-13T12:20:30;99399.78;;;21.79;74.18
56671;BME280;42545;50.054;8.306;2023-10-13T12:23:02;99398.22;;;21.74;73.88
56671;BME280;42545;50.054;8.306;2023-10-13T12:25:43;99392.09;;;21.70;74.39
56671;BME280;42545;50.054;8.306;2023-10-13T12:28:25;99389.59;;;21.65;74.84
56671;BME280;42545;50.054;8.306;2023-10-13T12:30:54;99390.66;;;21.61;75.19
56671;BME280;42545;50.054;8.306;2023-10-13T12:33:24;99392.59;;;21.58;74.27
56671;BME280;42545;50.054;8.306;2023-10-13T12:35:58;99383.78;;;21.54;73.89
56671;BME280;42545;50.054;8.306;2023-10-13T12:38:32;99373.97;;;21.53;73.51
56671;BME280;42545;50.054;8.306;2023-10-13T12:41:38;99375.59;;;21.57;73.65
56671;BME280;42545;50.054;8.306;2023-10-13T12:44:22;99366.63;;;21.58;74.18
56671;BME280;42545;50.054;8.306;2023-10-13T12:47:06;99364.81;;;21.59;74.31
56671;BME280;42545;50.054;8.306;2023-10-13T12:49:51;99370.06;;;21.62;73.42
56671;BME280;42545;50.054;8.306;2023-10-13T12:52:25;99359.22;;;21.65;73.27
56671;BME280;42545;50.054;8.306;2023-10-13T12:54:52;99358.13;;;21.69;73.75
56671;BME280;42545;50.054;8.306;2023-10-13T12:57:31;99355.03;;;21.80;74.45
56671;BME280;42545;50.054;8.306;2023-10-13T12:59:58;99341.22;;;21.89;73.78
56671;BME280;42545;50.054;8.306;2023-10-13T13:02:26;99358.66;;;21.99;71.01
56671;BME280;42545;50.054;8.306;2023-10-13T13:04:56;99352.91;;;22.08;70.86
56671;BME280;42545;50.054;8.306;2023-10-13T13:07:31;99352.63;;;22.16;69.31
56671;BME280;42545;50.054;8.306;2023-10-13T13:09:57;99351.41;;;22.23;69.38
56671;BME280;42545;50.054;8.306;2023-10-13T13:12:25;99346.66;;;22.30;67.59
56671;BME280;42545;50.054;8.306;2023-10-13T13:14:53;99353.41;;;22.40;66.12
56671;BME280;42545;50.054;8.306;2023-10-13T13:17:20;99344.66;;;22.56;67.47
56671;BME280;42545;50.054;8.306;2023-10-13T13:19:47;99335.25;;;22.66;66.51
56671;BME280;42545;50.054;8.306;2023-10-13T13:22:15;99342.97;;;22.74;66.67
56671;BME280;42545;50.054;8.306;2023-10-13T13:24:43;99338.25;;;22.79;65.81
56671;BME280;42545;50.054;8.306;2023-10-13T13:27:11;99330.69;;;22.87;65.77